sensor_id;sensor_type;location;lat;lon;timestamp;P1;durP1;ratioP1;P2;durP2;ratioP2
69912;SDS011;57198;52.082;5.108;2022-11-20T00:01:28;16.48;;;12.82;;
69912;SDS011;57198;52.082;5.108;2022-11-20T00:03:56;16.30;;;12.63;;
69912;SDS011;57198;52.082;5.108;2022-11-20T00:06:24;15.00;;;11.10;;
69912;SDS011;57198;52.082;5.108;2022-11-20T00:08:53;14.23;;;11.43;;
69912;SDS011;57198;52.082;5.108;2022-11-20T00:11:22;13.93;;;11.25;;
69912;SDS011;57198;52.082;5.108;2022-11-20T00:13:51;14.20;;;12.30;;
69912;SDS011;57198;52.082;5.108;2022-11-20T00:16:19;14.60;;;11.35;;
69912;SDS011;57198;52.082;5.108;2022-11-20T00:18:47;18.98;;;12.55;;
69912;SDS011;57198;52.082;5.108;2022-11-20T00:21:21;15.40;;;11.60;;
69912;SDS011;57198;52.082;5.108;2022-11-20T00:23:49;15.00;;;10.65;;
69912;SDS011;57198;52.082;5.108;2022-11-20T00:26:17;14.73;;;12.15;;
69912;SDS011;57198;52.082;5.108;2022-11-20T00:28:49;13.48;;;10.48;;
69912;SDS011;57198;52.082;5.108;2022-11-20T00:31:17;12.68;;;10.70;;
69912;SDS011;57198;52.082;5.108;2022-11-20T00:33:45;15.18;;;12.75;;
69912;SDS011;57198;52.082;5.108;2022-11-20T00:36:16;13.25;;;10.07;;
69912;SDS011;57198;52.082;5.108;2022-11-20T00:38:44;13.95;;;11.32;;
69912;SDS011;57198;52.082;5.108;2022-11-20T00:41:13;14.48;;;11.60;;
69912;SDS011;57198;52.082;5.108;2022-11-20T00:43:40;15.05;;;11.70;;
69912;SDS011;57198;52.082;5.108;2022-11-20T00:46:09;18.85;;;11.13;;
69912;SDS011;57198;52.082;5.108;2022-11-20T00:48:36;15.23;;;11.90;;
69912;SDS011;57198;52.082;5.108;2022-11-20T00:51:04;13.87;;;10.70;;
69912;SDS011;57198;52.082;5.108;2022-11-20T00:53:31;16.08;;;11.70;;
69912;SDS011;57198;52.082;5.108;2022-11-20T00:56:00;13.27;;;10.93;;
69912;SDS011;57198;52.082;5.108;2022-11-20T00:58:29;13.27;;;9.73;;
69912;SDS011;57198;52.082;5.108;2022-11-20T01:01:00;16.48;;;11.38;;
69912;SDS011;57198;52.082;5.108;2022-11-20T01:03:30;16.08;;;11.63;;
69912;SDS011;57198;52.082;5.108;2022-11-20T01:06:01;14.30;;;11.48;;
69912;SDS011;57198;52.082;5.108;2022-11-20T01:08:29;13.35;;;10.70;;
69912;SDS011;57198;52.082;5.108;2022-11-20T01:11:04;14.88;;;10.95;;
69912;SDS011;57198;52.082;5.108;2022-11-20T01:13:32;15.45;;;10.38;;
69912;SDS011;57198;52.082;5.108;2022-11-20T01:18:37;16.75;;;12.55;;
69912;SDS011;57198;52.082;5.108;2022-11-20T01:21:06;14.13;;;10.40;;
69912;SDS011;57198;52.082;5.108;2022-11-20T01:23:34;13.25;;;11.10;;
69912;SDS011;57198;52.082;5.108;2022-11-20T01:26:03;16.63;;;11.68;;
69912;SDS011;57198;52.082;5.108;2022-11-20T01:28:30;14.70;;;9.82;;
69912;SDS011;57198;52.082;5.108;2022-11-20T01:30:58;14.68;;;11.40;;
69912;SDS011;57198;52.082;5.108;2022-11-20T01:33:26;13.93;;;9.93;;
69912;SDS011;57198;52.082;5.108;2022-11-20T01:35:53;12.57;;;10.48;;
69912;SDS011;57198;52.082;5.108;2022-11-20T01:38:20;15.13;;;10.63;;
69912;SDS011;57198;52.082;5.108;2022-11-20T01:40:55;11.93;;;10.15;;
69912;SDS011;57198;52.082;5.108;2022-11-20T01:43:22;12.93;;;10.32;;
69912;SDS011;57198;52.082;5.108;2022-11-20T01:48:19;14.52;;;10.68;;
69912;SDS011;57198;52.082;5.108;2022-11-20T01:50:47;17.10;;;10.55;;
69912;SDS011;57198;52.082;5.108;2022-11-20T01:53:15;13.55;;;9.73;;
69912;SDS011;57198;52.082;5.108;2022-11-20T01:55:45;12.95;;;9.77;;
69912;SDS011;57198;52.082;5.108;2022-11-20T01:58:14;15.57;;;10.15;;
69912;SDS011;57198;52.082;5.108;2022-11-20T02:00:41;13.48;;;10.85;;
69912;SDS011;57198;52.082;5.108;2022-11-20T02:03:10;11.85;;;10.13;;
69912;SDS011;57198;52.082;5.108;2022-11-20T02:05:43;11.85;;;10.25;;
69912;SDS011;57198;52.082;5.108;2022-11-20T02:08:12;12.55;;;10.05;;
69912;SDS011;57198;52.082;5.108;2022-11-20T02:10:39;12.05;;;10.13;;
69912;SDS011;57198;52.082;5.108;2022-11-20T02:13:07;12.55;;;9.68;;
69912;SDS011;57198;52.082;5.108;2022-11-20T02:15:54;13.15;;;10.27;;
69912;SDS011;57198;52.082;5.108;2022-11-20T02:18:21;14.67;;;11.37;;
69912;SDS011;57198;52.082;5.108;2022-11-20T02:20:51;13.10;;;10.43;;
69912;SDS011;57198;52.082;5.108;2022-11-20T02:23:25;11.95;;;9.85;;
69912;SDS011;57198;52.082;5.108;2022-11-20T02:25:54;12.30;;;9.57;;
69912;SDS011;57198;52.082;5.108;2022-11-20T02:28:22;13.07;;;9.45;;
69912;SDS011;57198;52.082;5.108;2022-11-20T02:30:49;11.93;;;9.32;;
69912;SDS011;57198;52.082;5.108;2022-11-20T02:33:17;11.90;;;10.05;;
69912;SDS011;57198;52.082;5.108;2022-11-20T02:35:45;10.38;;;8.73;;
69912;SDS011;57198;52.082;5.108;2022-11-20T02:38:13;10.90;;;8.73;;
69912;SDS011;57198;52.082;5.108;2022-11-20T02:40:41;13.57;;;10.82;;
69912;SDS011;57198;52.082;5.108;2022-11-20T02:43:08;14.15;;;10.32;;
69912;SDS011;57198;52.082;5.108;2022-11-20T02:45:36;14.27;;;10.93;;
69912;SDS011;57198;52.082;5.108;2022-11-20T02:48:05;13.90;;;10.55;;
69912;SDS011;57198;52.082;5.108;2022-11-20T02:50:32;14.40;;;11.60;;
69912;SDS011;57198;52.082;5.108;2022-11-20T02:53:00;15.60;;;10.60;;
69912;SDS011;57198;52.082;5.108;2022-11-20T02:55:27;13.88;;;10.60;;
69912;SDS011;57198;52.082;5.108;2022-11-20T02:57:54;13.75;;;11.27;;
69912;SDS011;57198;52.082;5.108;2022-11-20T03:00:22;13.18;;;10.85;;
69912;SDS011;57198;52.082;5.108;2022-11-20T03:02:49;13.93;;;10.82;;
69912;SDS011;57198;52.082;5.108;2022-11-20T03:05:16;13.93;;;10.50;;
69912;SDS011;57198;52.082;5.108;2022-11-20T03:07:43;13.73;;;9.85;;
69912;SDS011;57198;52.082;5.108;2022-11-20T03:10:11;13.73;;;10.10;;
69912;SDS011;57198;52.082;5.108;2022-11-20T03:12:38;12.00;;;9.15;;
69912;SDS011;57198;52.082;5.108;2022-11-20T03:15:06;14.00;;;10.13;;
69912;SDS011;57198;52.082;5.108;2022-11-20T03:17:33;13.32;;;9.48;;
69912;SDS011;57198;52.082;5.108;2022-11-20T03:20:01;12.03;;;9.90;;
69912;SDS011;57198;52.082;5.108;2022-11-20T03:22:29;13.90;;;10.65;;
69912;SDS011;57198;52.082;5.108;2022-11-20T03:24:56;12.98;;;10.13;;
69912;SDS011;57198;52.082;5.108;2022-11-20T03:27:23;13.38;;;10.23;;
69912;SDS011;57198;52.082;5.108;2022-11-20T03:29:50;13.63;;;9.38;;
69912;SDS011;57198;52.082;5.108;2022-11-20T03:32:18;13.63;;;10.93;;
69912;SDS011;57198;52.082;5.108;2022-11-20T03:34:45;14.45;;;10.85;;
69912;SDS011;57198;52.082;5.108;2022-11-20T03:37:12;13.32;;;10.43;;
69912;SDS011;57198;52.082;5.108;2022-11-20T03:39:40;13.02;;;10.48;;
69912;SDS011;57198;52.082;5.108;2022-11-20T03:42:08;13.93;;;11.18;;
69912;SDS011;57198;52.082;5.108;2022-11-20T03:44:55;11.83;;;10.07;;
69912;SDS011;57198;52.082;5.108;2022-11-20T03:47:22;14.32;;;10.15;;
69912;SDS011;57198;52.082;5.108;2022-11-20T03:49:50;13.98;;;10.80;;
69912;SDS011;57198;52.082;5.108;2022-11-20T03:52:17;12.90;;;10.23;;
69912;SDS011;57198;52.082;5.108;2022-11-20T03:54:45;14.65;;;11.18;;
69912;SDS011;57198;52.082;5.108;2022-11-20T03:57:12;14.43;;;11.60;;
69912;SDS011;57198;52.082;5.108;2022-11-20T03:59:39;12.98;;;11.23;;
69912;SDS011;57198;52.082;5.108;2022-11-20T04:02:07;14.35;;;11.30;;
69912;SDS011;57198;52.082;5.108;2022-11-20T04:04:34;12.40;;;10.25;;
69912;SDS011;57198;52.082;5.108;2022-11-20T04:07:01;15.30;;;11.00;;
69912;SDS011;57198;52.082;5.108;2022-11-20T04:09:29;13.67;;;10.80;;
69912;SDS011;57198;52.082;5.108;2022-11-20T04:11:56;14.60;;;11.57;;
69912;SDS011;57198;52.082;5.108;2022-11-20T04:14:23;13.70;;;10.27;;
69912;SDS011;57198;52.082;5.108;2022-11-20T04:16:51;14.55;;;10.98;;
69912;SDS011;57198;52.082;5.108;2022-11-20T04:19:18;13.32;;;11.05;;
69912;SDS011;57198;52.082;5.108;2022-11-20T04:21:46;13.47;;;10.13;;
69912;SDS011;57198;52.082;5.108;2022-11-20T04:24:13;14.02;;;11.25;;
69912;SDS011;57198;52.082;5.108;2022-11-20T04:26:41;14.18;;;11.77;;
69912;SDS011;57198;52.082;5.108;2022-11-20T04:29:10;16.92;;;10.48;;
69912;SDS011;57198;52.082;5.108;2022-11-20T04:31:38;13.20;;;9.98;;
69912;SDS011;57198;52.082;5.108;2022-11-20T04:34:06;16.07;;;10.60;;
69912;SDS011;57198;52.082;5.108;2022-11-20T04:36:33;15.43;;;10.38;;
69912;SDS011;57198;52.082;5.108;2022-11-20T04:39:02;15.05;;;10.68;;
69912;SDS011;57198;52.082;5.108;2022-11-20T04:41:31;14.63;;;10.55;;
69912;SDS011;57198;52.082;5.108;2022-11-20T04:43:59;12.23;;;9.65;;
69912;SDS011;57198;52.082;5.108;2022-11-20T04:46:30;14.68;;;11.40;;
69912;SDS011;57198;52.082;5.108;2022-11-20T04:48:58;14.80;;;11.40;;
69912;SDS011;57198;52.082;5.108;2022-11-20T04:51:26;14.40;;;10.80;;
69912;SDS011;57198;52.082;5.108;2022-11-20T04:53:53;15.93;;;10.40;;
69912;SDS011;57198;52.082;5.108;2022-11-20T04:56:21;16.33;;;11.82;;
69912;SDS011;57198;52.082;5.108;2022-11-20T04:58:48;13.53;;;11.13;;
69912;SDS011;57198;52.082;5.108;2022-11-20T05:01:16;16.63;;;11.43;;
69912;SDS011;57198;52.082;5.108;2022-11-20T05:03:45;15.55;;;10.90;;
69912;SDS011;57198;52.082;5.108;2022-11-20T05:06:12;14.68;;;11.68;;
69912;SDS011;57198;52.082;5.108;2022-11-20T05:08:40;15.98;;;11.98;;
69912;SDS011;57198;52.082;5.108;2022-11-20T05:11:09;15.05;;;12.50;;
69912;SDS011;57198;52.082;5.108;2022-11-20T05:13:37;13.40;;;9.90;;
69912;SDS011;57198;52.082;5.108;2022-11-20T05:16:05;14.20;;;10.45;;
69912;SDS011;57198;52.082;5.108;2022-11-20T05:18:33;17.52;;;12.18;;
69912;SDS011;57198;52.082;5.108;2022-11-20T05:21:01;12.98;;;10.15;;
69912;SDS011;57198;52.082;5.108;2022-11-20T05:23:29;15.00;;;11.50;;
69912;SDS011;57198;52.082;5.108;2022-11-20T05:25:56;15.45;;;10.45;;
69912;SDS011;57198;52.082;5.108;2022-11-20T05:28:25;14.18;;;10.77;;
69912;SDS011;57198;52.082;5.108;2022-11-20T05:30:53;15.15;;;11.23;;
69912;SDS011;57198;52.082;5.108;2022-11-20T05:33:21;13.23;;;10.25;;
69912;SDS011;57198;52.082;5.108;2022-11-20T05:35:48;16.17;;;11.60;;
69912;SDS011;57198;52.082;5.108;2022-11-20T05:38:15;16.15;;;10.98;;
69912;SDS011;57198;52.082;5.108;2022-11-20T05:40:43;13.32;;;10.75;;
69912;SDS011;57198;52.082;5.108;2022-11-20T05:43:10;15.93;;;11.60;;
69912;SDS011;57198;52.082;5.108;2022-11-20T05:45:37;16.08;;;12.27;;
69912;SDS011;57198;52.082;5.108;2022-11-20T05:48:05;13.40;;;12.00;;
69912;SDS011;57198;52.082;5.108;2022-11-20T05:50:32;15.20;;;10.65;;
69912;SDS011;57198;52.082;5.108;2022-11-20T05:52:59;14.95;;;11.57;;
69912;SDS011;57198;52.082;5.108;2022-11-20T05:55:27;15.18;;;11.18;;
69912;SDS011;57198;52.082;5.108;2022-11-20T05:57:54;15.38;;;11.18;;
69912;SDS011;57198;52.082;5.108;2022-11-20T06:00:22;16.00;;;11.07;;
69912;SDS011;57198;52.082;5.108;2022-11-20T06:02:49;16.08;;;12.02;;
69912;SDS011;57198;52.082;5.108;2022-11-20T06:05:17;16.05;;;12.02;;
69912;SDS011;57198;52.082;5.108;2022-11-20T06:07:44;15.15;;;11.55;;
69912;SDS011;57198;52.082;5.108;2022-11-20T06:10:11;17.02;;;12.23;;
69912;SDS011;57198;52.082;5.108;2022-11-20T06:12:38;14.17;;;11.30;;
69912;SDS011;57198;52.082;5.108;2022-11-20T06:15:06;14.88;;;10.70;;
69912;SDS011;57198;52.082;5.108;2022-11-20T06:17:33;15.23;;;10.48;;
69912;SDS011;57198;52.082;5.108;2022-11-20T06:20:01;14.55;;;12.05;;
69912;SDS011;57198;52.082;5.108;2022-11-20T06:22:28;16.45;;;12.30;;
69912;SDS011;57198;52.082;5.108;2022-11-20T06:24:55;13.60;;;11.53;;
69912;SDS011;57198;52.082;5.108;2022-11-20T06:27:23;16.65;;;11.20;;
69912;SDS011;57198;52.082;5.108;2022-11-20T06:29:50;17.02;;;12.02;;
69912;SDS011;57198;52.082;5.108;2022-11-20T06:32:17;14.63;;;11.05;;
69912;SDS011;57198;52.082;5.108;2022-11-20T06:34:44;15.25;;;11.88;;
69912;SDS011;57198;52.082;5.108;2022-11-20T06:37:12;16.23;;;12.23;;
69912;SDS011;57198;52.082;5.108;2022-11-20T06:39:39;16.63;;;12.70;;
69912;SDS011;57198;52.082;5.108;2022-11-20T06:42:07;15.68;;;11.10;;
69912;SDS011;57198;52.082;5.108;2022-11-20T06:44:34;15.30;;;11.38;;
69912;SDS011;57198;52.082;5.108;2022-11-20T06:47:01;14.20;;;10.88;;
69912;SDS011;57198;52.082;5.108;2022-11-20T06:49:29;15.60;;;11.23;;
69912;SDS011;57198;52.082;5.108;2022-11-20T06:51:56;17.98;;;11.35;;
69912;SDS011;57198;52.082;5.108;2022-11-20T06:54:24;14.20;;;11.05;;
69912;SDS011;57198;52.082;5.108;2022-11-20T06:56:51;15.63;;;11.65;;
69912;SDS011;57198;52.082;5.108;2022-11-20T06:59:19;16.35;;;11.90;;
69912;SDS011;57198;52.082;5.108;2022-11-20T07:01:46;15.90;;;11.17;;
69912;SDS011;57198;52.082;5.108;2022-11-20T07:04:14;16.55;;;11.95;;
69912;SDS011;57198;52.082;5.108;2022-11-20T07:06:41;16.17;;;12.40;;
69912;SDS011;57198;52.082;5.108;2022-11-20T07:09:09;14.85;;;11.60;;
69912;SDS011;57198;52.082;5.108;2022-11-20T07:11:38;17.05;;;11.82;;
69912;SDS011;57198;52.082;5.108;2022-11-20T07:14:05;16.17;;;11.50;;
69912;SDS011;57198;52.082;5.108;2022-11-20T07:16:32;15.68;;;11.60;;
69912;SDS011;57198;52.082;5.108;2022-11-20T07:19:00;18.38;;;13.32;;
69912;SDS011;57198;52.082;5.108;2022-11-20T07:21:27;16.13;;;12.25;;
69912;SDS011;57198;52.082;5.108;2022-11-20T07:23:54;16.33;;;12.10;;
69912;SDS011;57198;52.082;5.108;2022-11-20T07:26:22;17.70;;;13.37;;
69912;SDS011;57198;52.082;5.108;2022-11-20T07:28:49;17.05;;;11.75;;
69912;SDS011;57198;52.082;5.108;2022-11-20T07:31:16;17.67;;;11.65;;
69912;SDS011;57198;52.082;5.108;2022-11-20T07:33:45;15.50;;;11.52;;
69912;SDS011;57198;52.082;5.108;2022-11-20T07:36:12;17.85;;;11.60;;
69912;SDS011;57198;52.082;5.108;2022-11-20T07:38:40;15.07;;;12.00;;
69912;SDS011;57198;52.082;5.108;2022-11-20T07:41:07;18.20;;;11.98;;
69912;SDS011;57198;52.082;5.108;2022-11-20T07:43:34;14.95;;;11.05;;
69912;SDS011;57198;52.082;5.108;2022-11-20T07:46:06;13.68;;;11.25;;
69912;SDS011;57198;52.082;5.108;2022-11-20T07:48:34;21.48;;;14.27;;
69912;SDS011;57198;52.082;5.108;2022-11-20T07:51:01;16.57;;;13.03;;
69912;SDS011;57198;52.082;5.108;2022-11-20T07:53:28;17.02;;;12.80;;
69912;SDS011;57198;52.082;5.108;2022-11-20T07:55:59;15.57;;;12.52;;
69912;SDS011;57198;52.082;5.108;2022-11-20T07:58:26;14.57;;;11.85;;
69912;SDS011;57198;52.082;5.108;2022-11-20T08:00:55;14.13;;;11.80;;
69912;SDS011;57198;52.082;5.108;2022-11-20T08:03:23;15.65;;;11.95;;
69912;SDS011;57198;52.082;5.108;2022-11-20T08:05:51;18.52;;;13.25;;
69912;SDS011;57198;52.082;5.108;2022-11-20T08:08:18;17.33;;;12.93;;
69912;SDS011;57198;52.082;5.108;2022-11-20T08:10:46;16.25;;;12.13;;
69912;SDS011;57198;52.082;5.108;2022-11-20T08:13:13;16.02;;;11.95;;
69912;SDS011;57198;52.082;5.108;2022-11-20T08:15:59;15.40;;;12.20;;
69912;SDS011;57198;52.082;5.108;2022-11-20T08:18:27;14.70;;;12.52;;
69912;SDS011;57198;52.082;5.108;2022-11-20T08:20:57;17.25;;;14.10;;
69912;SDS011;57198;52.082;5.108;2022-11-20T08:23:25;17.45;;;12.90;;
69912;SDS011;57198;52.082;5.108;2022-11-20T08:25:52;17.83;;;12.15;;
69912;SDS011;57198;52.082;5.108;2022-11-20T08:28:20;19.98;;;13.20;;
69912;SDS011;57198;52.082;5.108;2022-11-20T08:30:48;16.85;;;11.82;;
69912;SDS011;57198;52.082;5.108;2022-11-20T08:33:16;15.38;;;11.63;;
69912;SDS011;57198;52.082;5.108;2022-11-20T08:35:44;16.98;;;12.13;;
69912;SDS011;57198;52.082;5.108;2022-11-20T08:38:11;17.88;;;12.60;;
69912;SDS011;57198;52.082;5.108;2022-11-20T08:40:39;17.83;;;13.67;;
69912;SDS011;57198;52.082;5.108;2022-11-20T08:43:06;19.60;;;12.77;;
69912;SDS011;57198;52.082;5.108;2022-11-20T08:45:33;17.73;;;12.60;;
69912;SDS011;57198;52.082;5.108;2022-11-20T08:48:01;17.67;;;11.93;;
69912;SDS011;57198;52.082;5.108;2022-11-20T08:50:29;16.50;;;11.85;;
69912;SDS011;57198;52.082;5.108;2022-11-20T08:53:02;19.50;;;13.60;;
69912;SDS011;57198;52.082;5.108;2022-11-20T08:55:29;18.40;;;12.27;;
69912;SDS011;57198;52.082;5.108;2022-11-20T08:57:57;19.60;;;13.85;;
69912;SDS011;57198;52.082;5.108;2022-11-20T09:00:24;16.52;;;12.60;;
69912;SDS011;57198;52.082;5.108;2022-11-20T09:02:52;18.65;;;14.05;;
69912;SDS011;57198;52.082;5.108;2022-11-20T09:05:19;18.23;;;13.57;;
69912;SDS011;57198;52.082;5.108;2022-11-20T09:07:47;17.85;;;13.18;;
69912;SDS011;57198;52.082;5.108;2022-11-20T09:10:14;19.48;;;13.73;;
69912;SDS011;57198;52.082;5.108;2022-11-20T09:12:50;16.60;;;12.75;;
69912;SDS011;57198;52.082;5.108;2022-11-20T09:15:18;19.60;;;14.05;;
69912;SDS011;57198;52.082;5.108;2022-11-20T09:20:19;17.45;;;14.00;;
69912;SDS011;57198;52.082;5.108;2022-11-20T09:22:47;21.42;;;15.82;;
69912;SDS011;57198;52.082;5.108;2022-11-20T09:25:14;18.50;;;13.75;;
69912;SDS011;57198;52.082;5.108;2022-11-20T09:27:42;17.27;;;13.50;;
69912;SDS011;57198;52.082;5.108;2022-11-20T09:30:15;17.27;;;12.88;;
69912;SDS011;57198;52.082;5.108;2022-11-20T09:32:42;16.70;;;12.93;;
69912;SDS011;57198;52.082;5.108;2022-11-20T09:35:10;17.67;;;13.50;;
69912;SDS011;57198;52.082;5.108;2022-11-20T09:37:38;17.00;;;13.70;;
69912;SDS011;57198;52.082;5.108;2022-11-20T09:40:09;15.80;;;13.15;;
69912;SDS011;57198;52.082;5.108;2022-11-20T09:56:40;16.13;;;13.00;;
69912;SDS011;57198;52.082;5.108;2022-11-20T09:59:14;17.33;;;13.52;;
69912;SDS011;57198;52.082;5.108;2022-11-20T10:01:46;19.10;;;13.63;;
69912;SDS011;57198;52.082;5.108;2022-11-20T10:04:15;17.42;;;12.93;;
69912;SDS011;57198;52.082;5.108;2022-11-20T10:06:56;17.90;;;13.77;;
69912;SDS011;57198;52.082;5.108;2022-11-20T10:09:51;19.95;;;13.52;;
69912;SDS011;57198;52.082;5.108;2022-11-20T10:12:22;20.52;;;15.27;;
69912;SDS011;57198;52.082;5.108;2022-11-20T10:14:57;19.63;;;14.30;;
69912;SDS011;57198;52.082;5.108;2022-11-20T10:17:47;15.57;;;12.35;;
69912;SDS011;57198;52.082;5.108;2022-11-20T10:25:39;20.33;;;13.40;;
69912;SDS011;57198;52.082;5.108;2022-11-20T10:30:41;17.95;;;14.13;;
69912;SDS011;57198;52.082;5.108;2022-11-20T10:33:17;18.67;;;14.52;;
69912;SDS011;57198;52.082;5.108;2022-11-20T10:35:49;22.95;;;14.70;;
69912;SDS011;57198;52.082;5.108;2022-11-20T10:38:26;18.95;;;13.43;;
69912;SDS011;57198;52.082;5.108;2022-11-20T10:40:57;21.00;;;14.55;;
69912;SDS011;57198;52.082;5.108;2022-11-20T10:43:46;21.63;;;15.27;;
69912;SDS011;57198;52.082;5.108;2022-11-20T10:46:18;21.02;;;14.63;;
69912;SDS011;57198;52.082;5.108;2022-11-20T10:48:48;23.63;;;14.87;;
69912;SDS011;57198;52.082;5.108;2022-11-20T10:54:19;22.88;;;15.57;;
69912;SDS011;57198;52.082;5.108;2022-11-20T10:56:52;21.88;;;15.23;;
69912;SDS011;57198;52.082;5.108;2022-11-20T11:01:53;21.65;;;15.25;;
69912;SDS011;57198;52.082;5.108;2022-11-20T11:05:04;24.63;;;17.13;;
69912;SDS011;57198;52.082;5.108;2022-11-20T11:07:33;20.70;;;15.23;;
69912;SDS011;57198;52.082;5.108;2022-11-20T11:09:58;22.02;;;14.70;;
69912;SDS011;57198;52.082;5.108;2022-11-20T11:12:26;24.15;;;16.67;;
69912;SDS011;57198;52.082;5.108;2022-11-20T11:14:55;24.17;;;16.90;;
69912;SDS011;57198;52.082;5.108;2022-11-20T11:22:30;23.67;;;16.60;;
69912;SDS011;57198;52.082;5.108;2022-11-20T11:24:58;23.98;;;16.45;;
69912;SDS011;57198;52.082;5.108;2022-11-20T11:27:25;24.98;;;17.67;;
69912;SDS011;57198;52.082;5.108;2022-11-20T11:30:03;30.92;;;18.48;;
69912;SDS011;57198;52.082;5.108;2022-11-20T11:32:38;28.70;;;17.70;;
69912;SDS011;57198;52.082;5.108;2022-11-20T11:35:07;26.23;;;16.88;;
69912;SDS011;57198;52.082;5.108;2022-11-20T11:37:44;25.98;;;16.42;;
69912;SDS011;57198;52.082;5.108;2022-11-20T11:40:13;26.67;;;17.67;;
69912;SDS011;57198;52.082;5.108;2022-11-20T11:42:54;31.92;;;18.50;;
69912;SDS011;57198;52.082;5.108;2022-11-20T11:45:22;27.80;;;18.15;;
69912;SDS011;57198;52.082;5.108;2022-11-20T11:47:49;26.58;;;16.92;;
69912;SDS011;57198;52.082;5.108;2022-11-20T11:50:24;24.60;;;15.77;;
69912;SDS011;57198;52.082;5.108;2022-11-20T11:53:01;27.40;;;18.13;;
69912;SDS011;57198;52.082;5.108;2022-11-20T12:06:34;31.20;;;17.80;;
69912;SDS011;57198;52.082;5.108;2022-11-20T12:09:08;33.38;;;20.42;;
69912;SDS011;57198;52.082;5.108;2022-11-20T12:14:49;31.77;;;19.52;;
69912;SDS011;57198;52.082;5.108;2022-11-20T12:16:57;30.92;;;19.38;;
69912;SDS011;57198;52.082;5.108;2022-11-20T12:19:25;32.57;;;19.03;;
69912;SDS011;57198;52.082;5.108;2022-11-20T12:22:15;35.35;;;19.13;;
69912;SDS011;57198;52.082;5.108;2022-11-20T12:24:54;37.38;;;21.73;;
69912;SDS011;57198;52.082;5.108;2022-11-20T12:30:06;38.05;;;21.90;;
69912;SDS011;57198;52.082;5.108;2022-11-20T12:43:19;33.05;;;20.65;;
69912;SDS011;57198;52.082;5.108;2022-11-20T12:54:11;33.65;;;18.33;;
69912;SDS011;57198;52.082;5.108;2022-11-20T12:56:50;35.47;;;19.48;;
69912;SDS011;57198;52.082;5.108;2022-11-20T13:07:56;34.60;;;19.08;;
69912;SDS011;57198;52.082;5.108;2022-11-20T13:10:26;32.15;;;17.15;;
69912;SDS011;57198;52.082;5.108;2022-11-20T13:12:59;33.13;;;17.63;;
69912;SDS011;57198;52.082;5.108;2022-11-20T13:18:14;36.13;;;20.00;;
69912;SDS011;57198;52.082;5.108;2022-11-20T13:20:43;31.08;;;17.52;;
69912;SDS011;57198;52.082;5.108;2022-11-20T13:23:10;32.90;;;17.33;;
69912;SDS011;57198;52.082;5.108;2022-11-20T13:25:38;33.95;;;18.55;;
69912;SDS011;57198;52.082;5.108;2022-11-20T13:30:36;36.55;;;20.08;;
69912;SDS011;57198;52.082;5.108;2022-11-20T13:33:09;33.92;;;17.08;;
69912;SDS011;57198;52.082;5.108;2022-11-20T13:38:25;38.17;;;20.58;;
69912;SDS011;57198;52.082;5.108;2022-11-20T13:41:01;30.38;;;17.42;;
69912;SDS011;57198;52.082;5.108;2022-11-20T13:43:48;37.58;;;19.75;;
69912;SDS011;57198;52.082;5.108;2022-11-20T13:46:16;35.95;;;20.90;;
69912;SDS011;57198;52.082;5.108;2022-11-20T13:48:50;37.45;;;18.92;;
69912;SDS011;57198;52.082;5.108;2022-11-20T13:56:24;38.03;;;20.98;;
69912;SDS011;57198;52.082;5.108;2022-11-20T14:01:40;38.58;;;21.40;;
69912;SDS011;57198;52.082;5.108;2022-11-20T14:04:11;35.40;;;21.23;;
69912;SDS011;57198;52.082;5.108;2022-11-20T14:06:41;31.20;;;18.73;;
69912;SDS011;57198;52.082;5.108;2022-11-20T14:09:12;35.00;;;20.40;;
69912;SDS011;57198;52.082;5.108;2022-11-20T14:11:46;36.35;;;19.77;;
69912;SDS011;57198;52.082;5.108;2022-11-20T14:14:17;41.78;;;22.70;;
69912;SDS011;57198;52.082;5.108;2022-11-20T14:16:46;38.33;;;22.40;;
69912;SDS011;57198;52.082;5.108;2022-11-20T14:21:48;41.35;;;20.77;;
69912;SDS011;57198;52.082;5.108;2022-11-20T14:24:20;38.05;;;22.60;;
69912;SDS011;57198;52.082;5.108;2022-11-20T14:26:48;39.65;;;21.33;;
69912;SDS011;57198;52.082;5.108;2022-11-20T14:29:16;38.20;;;21.10;;
69912;SDS011;57198;52.082;5.108;2022-11-20T14:31:44;34.35;;;20.52;;
69912;SDS011;57198;52.082;5.108;2022-11-20T14:34:22;40.17;;;21.35;;
69912;SDS011;57198;52.082;5.108;2022-11-20T14:36:52;39.03;;;20.98;;
69912;SDS011;57198;52.082;5.108;2022-11-20T14:39:21;41.45;;;22.80;;
69912;SDS011;57198;52.082;5.108;2022-11-20T14:41:51;38.60;;;20.95;;
69912;SDS011;57198;52.082;5.108;2022-11-20T14:44:26;37.30;;;20.67;;
69912;SDS011;57198;52.082;5.108;2022-11-20T14:46:54;36.33;;;21.08;;
69912;SDS011;57198;52.082;5.108;2022-11-20T14:49:22;32.92;;;18.55;;
69912;SDS011;57198;52.082;5.108;2022-11-20T14:51:58;39.47;;;21.17;;
69912;SDS011;57198;52.082;5.108;2022-11-20T14:54:26;41.83;;;21.85;;
69912;SDS011;57198;52.082;5.108;2022-11-20T14:56:55;40.22;;;21.42;;
69912;SDS011;57198;52.082;5.108;2022-11-20T14:59:23;38.40;;;22.13;;
69912;SDS011;57198;52.082;5.108;2022-11-20T15:01:54;43.70;;;22.00;;
69912;SDS011;57198;52.082;5.108;2022-11-20T15:04:22;41.22;;;22.45;;
69912;SDS011;57198;52.082;5.108;2022-11-20T15:06:51;42.03;;;23.55;;
69912;SDS011;57198;52.082;5.108;2022-11-20T15:09:18;39.78;;;22.63;;
69912;SDS011;57198;52.082;5.108;2022-11-20T15:11:53;42.13;;;21.88;;
69912;SDS011;57198;52.082;5.108;2022-11-20T15:14:21;41.28;;;21.25;;
69912;SDS011;57198;52.082;5.108;2022-11-20T15:16:50;40.08;;;21.52;;
69912;SDS011;57198;52.082;5.108;2022-11-20T15:19:24;42.88;;;22.92;;
69912;SDS011;57198;52.082;5.108;2022-11-20T15:21:52;39.15;;;21.17;;
69912;SDS011;57198;52.082;5.108;2022-11-20T15:24:19;41.03;;;21.00;;
69912;SDS011;57198;52.082;5.108;2022-11-20T15:26:47;38.92;;;22.50;;
69912;SDS011;57198;52.082;5.108;2022-11-20T15:29:15;40.22;;;21.27;;
69912;SDS011;57198;52.082;5.108;2022-11-20T15:31:45;40.45;;;21.42;;
69912;SDS011;57198;52.082;5.108;2022-11-20T15:34:13;37.95;;;21.58;;
69912;SDS011;57198;52.082;5.108;2022-11-20T15:36:41;34.42;;;20.05;;
69912;SDS011;57198;52.082;5.108;2022-11-20T15:39:09;40.00;;;21.95;;
69912;SDS011;57198;52.082;5.108;2022-11-20T15:41:38;35.75;;;20.83;;
69912;SDS011;57198;52.082;5.108;2022-11-20T15:44:05;37.33;;;21.38;;
69912;SDS011;57198;52.082;5.108;2022-11-20T15:46:33;33.88;;;20.08;;
69912;SDS011;57198;52.082;5.108;2022-11-20T15:49:06;35.70;;;19.38;;
69912;SDS011;57198;52.082;5.108;2022-11-20T15:51:38;32.33;;;19.38;;
69912;SDS011;57198;52.082;5.108;2022-11-20T15:54:16;34.75;;;21.08;;
69912;SDS011;57198;52.082;5.108;2022-11-20T15:56:48;35.42;;;21.42;;
69912;SDS011;57198;52.082;5.108;2022-11-20T15:59:15;30.30;;;18.27;;
69912;SDS011;57198;52.082;5.108;2022-11-20T16:01:43;30.17;;;19.10;;
69912;SDS011;57198;52.082;5.108;2022-11-20T16:04:11;30.80;;;18.95;;
69912;SDS011;57198;52.082;5.108;2022-11-20T16:06:39;31.80;;;18.52;;
69912;SDS011;57198;52.082;5.108;2022-11-20T16:09:06;33.08;;;20.15;;
69912;SDS011;57198;52.082;5.108;2022-11-20T16:11:34;30.92;;;19.23;;
69912;SDS011;57198;52.082;5.108;2022-11-20T16:14:03;33.58;;;19.95;;
69912;SDS011;57198;52.082;5.108;2022-11-20T16:16:50;28.85;;;18.15;;
69912;SDS011;57198;52.082;5.108;2022-11-20T16:19:17;25.60;;;17.42;;